Time;durP1;ratioP1;P1;durP2;ratioP2;P2;SDS_P1;SDS_P2;PMS_P1;PMS_P2;Temp;Humidity;BMP_temperature;BMP_pressure;BME280_temperature;BME280_humidity;BME280_pressure;Samples;Min_cycle;Max_cycle;Signal;HPM_P1;HPM_P2
2023/10/28 00:00:50;;;;;;;;;;;;;;;-144.99;100.00;52517.41;5128837;28;19935;-74
2023/10/28 00:03:16;;;;;;;;;;;;;;;-144.99;100.00;52541.84;5127880;28;20487;-75
2023/10/28 00:05:43;;;;;;;;;;;;;;;-144.99;100.00;52521.47;5126098;28;20200;-75
2023/10/28 00:08:09;;;;;;;;;;;;;;;-144.99;100.00;52562.25;5134979;27;19924;-76
2023/10/28 00:10:37;;;;;;;;;;;;;;;-144.99;100.00;52570.38;5126747;28;20252;-75
2023/10/28 00:13:04;;;;;;;;;;;;;;;-144.99;100.00;52556.13;5130864;28;19924;-75
2023/10/28 00:15:31;;;;;;;;;;;;;;;-144.99;100.00;52545.94;5129399;28;19971;-75
2023/10/28 00:17:58;;;;;;;;;;;;;;;-144.99;100.00;52517.41;5144374;28;19930;-75
2023/10/28 00:20:24;;;;;;;;;;;;;;;-144.99;100.00;52541.84;5139414;28;20003;-75
2023/10/28 00:22:53;;;;;;;;;;;;;;;-144.99;100.00;52521.47;5140794;28;20480;-76
2023/10/28 00:25:22;;;;;;;;;;;;;;;-144.99;100.00;52513.31;5142444;28;19938;-76
2023/10/28 00:27:50;;;;;;;;;;;;;;;-144.99;100.00;52570.38;5132903;28;19927;-74
2023/10/28 00:30:17;;;;;;;;;;;;;;;-144.99;100.00;52529.63;5140029;27;19964;-74
2023/10/28 00:32:43;;;;;;;;;;;;;;;-144.99;100.00;52576.50;5134553;22;19954;-71
2023/10/28 00:35:11;;;;;;;;;;;;;;;-144.99;100.00;52550.00;5119405;27;20151;-70
2023/10/28 00:37:38;;;;;;;;;;;;;;;-144.99;100.00;52554.09;5129575;27;20375;-73
2023/10/28 00:40:06;;;;;;;;;;;;;;;-144.99;100.00;52541.84;5120663;27;20338;-73
2023/10/28 00:42:35;;;;;;;;;;;;;;;-144.99;100.00;52521.47;5117534;27;19992;-69
2023/10/28 00:45:03;;;;;;;;;;;;;;;-144.99;100.00;52558.16;5119917;27;19974;-68
2023/10/28 00:47:30;;;;;;;;;;;;;;;-144.99;100.00;52523.50;5117720;27;19955;-68
2023/10/28 00:49:58;;;;;;;;;;;;;;;-144.99;100.00;52521.47;5125558;27;19927;-67
2023/10/28 00:52:24;;;;;;;;;;;;;;;-144.99;100.00;52529.63;5118513;27;20472;-68
2023/10/28 00:54:53;;;;;;;;;;;;;;;-144.99;100.00;52554.09;5118936;27;20450;-67
2023/10/28 00:57:19;;;;;;;;;;;;;;;-144.99;100.00;52566.31;5119182;27;20360;-67
2023/10/28 00:59:46;;;;;;;;;;;;;;;-144.99;100.00;52558.16;5121256;27;19924;-68
2023/10/28 01:02:14;;;;;;;;;;;;;;;-144.99;100.00;52545.94;5118513;27;19978;-68
2023/10/28 01:04:40;;;;;;;;;;;;;;;-144.99;100.00;52533.69;5122366;27;19932;-69
2023/10/28 01:07:07;;;;;;;;;;;;;;;-144.99;100.00;52527.59;5132115;27;20338;-69
2023/10/28 01:09:44;;;;;;;;;;;;;;;-144.99;100.00;52545.94;5133388;27;20021;-67
2023/10/28 01:12:12;;;;;;;;;;;;;;;-144.99;100.00;52541.84;5132113;27;20003;-69
2023/10/28 01:14:39;;;;;;;;;;;;;;;-144.99;100.00;52550.00;5131866;27;19976;-68
2023/10/28 01:17:06;;;;;;;;;;;;;;;-144.99;100.00;52517.41;5127512;27;19966;-69
2023/10/28 01:19:34;;;;;;;;;;;;;;;-144.99;100.00;52545.94;5127002;27;19934;-69
2023/10/28 01:22:02;;;;;;;;;;;;;;;-144.99;100.00;52566.31;5133061;27;19930;-69
2023/10/28 01:24:29;;;;;;;;;;;;;;;-144.99;100.00;52521.47;5123174;27;19931;-69
2023/10/28 01:26:55;;;;;;;;;;;;;;;-144.99;100.00;52545.94;5130656;27;20262;-69
2023/10/28 01:29:24;;;;;;;;;;;;;;;-144.99;100.00;52558.16;5124875;27;20279;-68
2023/10/28 01:31:51;;;;;;;;;;;;;;;-144.99;100.00;52537.78;5117899;27;20306;-67
2023/10/28 01:34:17;;;;;;;;;;;;;;;-144.99;100.00;52533.69;5132283;27;20010;-67
2023/10/28 01:36:45;;;;;;;;;;;;;;;-144.99;100.00;52521.47;5124018;27;19927;-68
2023/10/28 01:39:13;;;;;;;;;;;;;;;-144.99;100.00;52545.94;5124642;27;20384;-69
2023/10/28 01:41:39;;;;;;;;;;;;;;;-144.99;100.00;52550.00;5124235;27;19927;-69
2023/10/28 01:44:06;;;;;;;;;;;;;;;-144.99;100.00;52537.78;5115227;27;20427;-69
2023/10/28 01:46:32;;;;;;;;;;;;;;;-144.99;100.00;52558.16;5131672;27;20026;-69
2023/10/28 01:48:59;;;;;;;;;;;;;;;-144.99;100.00;52513.31;5123237;27;19927;-69
2023/10/28 01:51:25;;;;;;;;;;;;;;;-144.99;100.00;52533.69;5131136;27;20428;-69
2023/10/28 01:53:52;;;;;;;;;;;;;;;-144.99;100.00;52558.16;5129089;27;19930;-69
2023/10/28 01:56:20;;;;;;;;;;;;;;;-144.99;100.00;52529.63;5124214;27;20460;-69
2023/10/28 01:58:46;;;;;;;;;;;;;;;-144.99;100.00;52509.25;5128013;27;19969;-66
2023/10/28 02:01:12;;;;;;;;;;;;;;;-144.99;100.00;52545.94;5124697;27;19962;-69
2023/10/28 02:03:39;;;;;;;;;;;;;;;-144.99;100.00;52488.84;5118088;27;20453;-68
2023/10/28 02:06:06;;;;;;;;;;;;;;;-144.99;100.00;52550.00;5122680;27;20381;-67
2023/10/28 02:08:33;;;;;;;;;;;;;;;-144.99;100.00;52525.56;5122346;27;19982;-69
2023/10/28 02:10:59;;;;;;;;;;;;;;;-144.99;100.00;52560.19;5129338;27;20454;-68
2023/10/28 02:13:27;;;;;;;;;;;;;;;-144.99;100.00;52574.47;5123686;27;19930;-68
2023/10/28 02:15:53;;;;;;;;;;;;;;;-144.99;100.00;52545.94;5129610;27;19967;-68
2023/10/28 02:18:22;;;;;;;;;;;;;;;-144.99;100.00;52550.00;5123777;27;19986;-68
2023/10/28 02:20:49;;;;;;;;;;;;;;;-144.99;100.00;52554.09;5118961;27;19924;-69
2023/10/28 02:23:15;;;;;;;;;;;;;;;-144.99;100.00;52525.56;5125820;27;20396;-68
2023/10/28 02:25:42;;;;;;;;;;;;;;;-144.99;100.00;52517.41;5128985;27;20280;-68
2023/10/28 02:28:09;;;;;;;;;;;;;;;-144.99;100.00;52541.84;5124869;27;20291;-68
2023/10/28 02:30:38;;;;;;;;;;;;;;;-144.99;100.00;52513.31;5125342;27;19967;-70
2023/10/28 02:33:05;;;;;;;;;;;;;;;-144.99;100.00;52537.78;5126728;27;20193;-69
2023/10/28 02:35:32;;;;;;;;;;;;;;;-144.99;100.00;52562.25;5118239;27;20031;-68
2023/10/28 02:37:59;;;;;;;;;;;;;;;-144.99;100.00;52545.94;5119077;27;19966;-68
2023/10/28 02:40:25;;;;;;;;;;;;;;;-144.99;100.00;52562.25;5126970;27;19931;-68
2023/10/28 02:42:52;;;;;;;;;;;;;;;-144.99;100.00;52525.56;5121733;27;19970;-68
2023/10/28 02:45:18;;;;;;;;;;;;;;;-144.99;100.00;52541.84;5121408;27;19963;-68
2023/10/28 02:47:46;;;;;;;;;;;;;;;-144.99;100.00;52543.91;5125939;27;20072;-68
2023/10/28 02:50:13;;;;;;;;;;;;;;;-144.99;100.00;52574.47;5123960;27;19924;-68
2023/10/28 02:52:39;;;;;;;;;;;;;;;-144.99;100.00;52550.00;5118042;27;20027;-66
2023/10/28 02:55:06;;;;;;;;;;;;;;;-144.99;100.00;52552.03;5120881;27;19955;-65
2023/10/28 02:57:33;;;;;;;;;;;;;;;-144.99;100.00;52578.53;5130890;27;20381;-67
2023/10/28 02:59:59;;;;;;;;;;;;;;;-144.99;100.00;52541.84;5113599;27;19983;-67
2023/10/28 03:02:26;;;;;;;;;;;;;;;-144.99;100.00;52541.84;5121102;27;19937;-66
2023/10/28 03:04:54;;;;;;;;;;;;;;;-144.99;100.00;52570.38;5124192;27;19930;-68
2023/10/28 03:07:21;;;;;;;;;;;;;;;-144.99;100.00;52566.31;5125200;27;19929;-65
2023/10/28 03:09:47;;;;;;;;;;;;;;;-144.99;100.00;52541.84;5116575;27;19933;-73
2023/10/28 03:12:15;;;;;;;;;;;;;;;-144.99;100.00;52547.97;5123461;27;20027;-70
2023/10/28 03:14:42;;;;;;;;;;;;;;;-144.99;100.00;52529.63;5122927;27;20015;-70
2023/10/28 03:17:09;;;;;;;;;;;;;;;-144.99;100.00;52545.94;5117748;27;19977;-68
2023/10/28 03:19:35;;;;;;;;;;;;;;;-144.99;100.00;52554.09;5121444;27;20369;-68
2023/10/28 03:22:03;;;;;;;;;;;;;;;-144.99;100.00;52566.31;5121938;27;20346;-64
2023/10/28 03:24:29;;;;;;;;;;;;;;;-144.99;100.00;52550.00;5120738;27;19959;-67
2023/10/28 03:26:56;;;;;;;;;;;;;;;-144.99;100.00;52570.38;5126687;27;19970;-64
2023/10/28 03:29:22;;;;;;;;;;;;;;;-144.99;100.00;52545.94;5130229;27;19927;-64
2023/10/28 03:31:49;;;;;;;;;;;;;;;-144.99;100.00;52570.38;5122966;27;19985;-66
2023/10/28 03:34:15;;;;;;;;;;;;;;;-144.99;100.00;52566.31;5122954;27;19933;-66
2023/10/28 03:36:42;;;;;;;;;;;;;;;-144.99;100.00;52541.84;5125930;28;20381;-66
2023/10/28 03:39:09;;;;;;;;;;;;;;;-144.99;100.00;52566.31;5125254;28;20338;-65
2023/10/28 03:41:38;;;;;;;;;;;;;;;-144.99;100.00;52517.41;5118521;27;20309;-65
2023/10/28 03:44:04;;;;;;;;;;;;;;;-144.99;100.00;52570.38;5118763;28;19931;-65
2023/10/28 03:46:31;;;;;;;;;;;;;;;-144.99;100.00;52586.69;5125768;28;20248;-64
2023/10/28 03:48:57;;;;;;;;;;;;;;;-144.99;100.00;52509.25;5116092;28;19951;-65
2023/10/28 03:51:24;;;;;;;;;;;;;;;-144.99;100.00;52562.25;5127721;28;20457;-66
2023/10/28 03:53:50;;;;;;;;;;;;;;;-144.99;100.00;52574.47;5125163;28;19971;-65
2023/10/28 03:56:18;;;;;;;;;;;;;;;-144.99;100.00;52550.00;5129722;27;19931;-66
2023/10/28 03:58:44;;;;;;;;;;;;;;;-144.99;100.00;52523.50;5122409;28;19923;-67
2023/10/28 04:01:11;;;;;;;;;;;;;;;-144.99;100.00;52550.00;5119363;28;19974;-66
2023/10/28 04:03:38;;;;;;;;;;;;;;;-144.99;100.00;52550.00;5118853;28;19962;-70
2023/10/28 04:06:04;;;;;;;;;;;;;;;-144.99;100.00;52598.94;5120476;27;19932;-71
2023/10/28 04:08:31;;;;;;;;;;;;;;;-144.99;100.00;52562.25;5117731;27;19955;-70
2023/10/28 04:10:58;;;;;;;;;;;;;;;-144.99;100.00;52590.78;5101681;27;19923;-70
2023/10/28 04:13:26;;;;;;;;;;;;;;;-144.99;100.00;52582.63;5127290;27;20027;-70
2023/10/28 04:15:52;;;;;;;;;;;;;;;-144.99;100.00;52558.16;5121358;27;19928;-70
2023/10/28 04:18:19;;;;;;;;;;;;;;;-144.99;100.00;52552.03;5131466;27;20030;-71
2023/10/28 04:20:45;;;;;;;;;;;;;;;-144.99;100.00;52545.94;5123807;27;20304;-72
2023/10/28 04:23:12;;;;;;;;;;;;;;;-144.99;100.00;52541.84;5133518;27;19927;-69
2023/10/28 04:25:38;;;;;;;;;;;;;;;-144.99;100.00;52556.13;5129710;27;19992;-67
2023/10/28 04:28:05;;;;;;;;;;;;;;;-144.99;100.00;52521.47;5125193;27;20022;-71
2023/10/28 04:30:33;;;;;;;;;;;;;;;-144.99;100.00;52533.69;5129751;27;19935;-70
2023/10/28 04:32:59;;;;;;;;;;;;;;;-144.99;100.00;52568.34;5114753;27;19976;-70
2023/10/28 04:35:25;;;;;;;;;;;;;;;-144.99;100.00;52558.16;5129999;27;20010;-69
2023/10/28 04:37:53;;;;;;;;;;;;;;;-144.99;100.00;52545.94;5133349;27;19975;-70
2023/10/28 04:40:19;;;;;;;;;;;;;;;-144.99;100.00;52521.47;5131565;27;20078;-70
2023/10/28 04:42:47;;;;;;;;;;;;;;;-144.99;100.00;52558.16;5124342;27;19998;-69
2023/10/28 04:45:13;;;;;;;;;;;;;;;-144.99;100.00;52545.94;5132996;27;19924;-69
2023/10/28 04:47:41;;;;;;;;;;;;;;;-144.99;100.00;52562.25;5132192;27;19929;-70
2023/10/28 04:50:08;;;;;;;;;;;;;;;-144.99;100.00;52537.78;5129424;27;19923;-69
2023/10/28 04:52:34;;;;;;;;;;;;;;;-144.99;100.00;52525.56;5128224;27;19958;-68
2023/10/28 04:55:01;;;;;;;;;;;;;;;-144.99;100.00;52552.03;5129295;27;19959;-68
2023/10/28 04:57:27;;;;;;;;;;;;;;;-144.99;100.00;52574.47;5132748;27;20270;-66
2023/10/28 04:59:54;;;;;;;;;;;;;;;-144.99;100.00;52501.09;5130087;27;19930;-68
2023/10/28 05:02:20;;;;;;;;;;;;;;;-144.99;100.00;52529.63;5122810;27;19927;-69
2023/10/28 05:04:48;;;;;;;;;;;;;;;-144.99;100.00;52537.78;5122402;27;20388;-69
2023/10/28 05:07:14;;;;;;;;;;;;;;;-144.99;100.00;52541.84;5116782;27;19924;-70
2023/10/28 05:09:41;;;;;;;;;;;;;;;-144.99;100.00;52541.84;5133268;27;19978;-68
2023/10/28 05:12:08;;;;;;;;;;;;;;;-144.99;100.00;52562.25;5128355;27;19970;-68
2023/10/28 05:14:34;;;;;;;;;;;;;;;-144.99;100.00;52566.31;5128264;27;19923;-67
2023/10/28 05:17:00;;;;;;;;;;;;;;;-144.99;100.00;52545.94;5128728;27;20168;-68
2023/10/28 05:19:27;;;;;;;;;;;;;;;-144.99;100.00;52525.56;5120414;27;19982;-67
2023/10/28 05:21:55;;;;;;;;;;;;;;;-144.99;100.00;52539.81;5121161;27;20023;-69
2023/10/28 05:24:22;;;;;;;;;;;;;;;-144.99;100.00;52509.25;5125724;27;20026;-68
2023/10/28 05:26:48;;;;;;;;;;;;;;;-144.99;100.00;52517.41;5121027;27;20333;-67
2023/10/28 05:29:16;;;;;;;;;;;;;;;-144.99;100.00;52533.69;5119218;27;20342;-68
2023/10/28 05:31:42;;;;;;;;;;;;;;;-144.99;100.00;52545.94;5115340;27;19930;-67
2023/10/28 05:34:09;;;;;;;;;;;;;;;-144.99;100.00;52533.69;5118400;27;19928;-69
2023/10/28 05:36:35;;;;;;;;;;;;;;;-144.99;100.00;52545.94;5121674;27;19946;-71
2023/10/28 05:39:03;;;;;;;;;;;;;;;-144.99;100.00;52517.41;5125338;27;19977;-70
2023/10/28 05:41:31;;;;;;;;;;;;;;;-144.99;100.00;52623.38;5120012;27;20006;-69
2023/10/28 05:43:57;;;;;;;;;;;;;;;-144.99;100.00;52545.94;5132896;27;20365;-70
2023/10/28 05:46:24;;;;;;;;;;;;;;;-144.99;100.00;52547.97;5131432;27;20002;-70
2023/10/28 05:48:50;;;;;;;;;;;;;;;-144.99;100.00;52590.78;5120635;27;19993;-70
2023/10/28 05:51:17;;;;;;;;;;;;;;;-144.99;100.00;52560.19;5125889;27;19979;-72
2023/10/28 05:53:43;;;;;;;;;;;;;;;-144.99;100.00;52529.63;5121042;27;19931;-71
2023/10/28 05:56:12;;;;;;;;;;;;;;;-144.99;100.00;52539.81;5125155;27;19928;-70
2023/10/28 05:58:38;;;;;;;;;;;;;;;-144.99;100.00;52574.47;5117988;27;19923;-71
2023/10/28 06:01:05;;;;;;;;;;;;;;;-144.99;100.00;52517.41;5123156;27;20371;-71
2023/10/28 06:03:31;;;;;;;;;;;;;;;-144.99;100.00;52554.09;5119406;27;19923;-72
2023/10/28 06:05:58;;;;;;;;;;;;;;;-144.99;100.00;52558.16;5127425;27;20480;-71
2023/10/28 06:08:24;;;;;;;;;;;;;;;-144.99;100.00;52562.25;5126272;27;20321;-72
2023/10/28 06:10:51;;;;;;;;;;;;;;;-144.99;100.00;52529.63;5123474;27;19928;-72
2023/10/28 06:13:18;;;;;;;;;;;;;;;-144.99;100.00;52556.13;5128007;27;20283;-71
2023/10/28 06:15:46;;;;;;;;;;;;;;;-144.99;100.00;52550.00;5123384;27;19927;-72
2023/10/28 06:18:13;;;;;;;;;;;;;;;-144.99;100.00;52525.56;5124158;27;19923;-73
2023/10/28 06:20:39;;;;;;;;;;;;;;;-144.99;100.00;52541.84;5128954;27;19958;-69
2023/10/28 06:23:06;;;;;;;;;;;;;;;-144.99;100.00;52588.75;5120961;27;20354;-69
2023/10/28 06:25:34;;;;;;;;;;;;;;;-144.99;100.00;52525.56;5126670;27;21029;-68
2023/10/28 06:28:01;;;;;;;;;;;;;;;-144.99;100.00;52550.00;5127441;27;19947;-69
2023/10/28 06:30:29;;;;;;;;;;;;;;;-144.99;100.00;52562.25;5127717;27;20034;-69
2023/10/28 06:32:55;;;;;;;;;;;;;;;-144.99;100.00;52533.69;5125081;27;19935;-72
2023/10/28 06:35:22;;;;;;;;;;;;;;;-144.99;100.00;52533.69;5124255;27;20360;-69
2023/10/28 06:37:48;;;;;;;;;;;;;;;-144.99;100.00;52509.25;5109578;27;20393;-68
2023/10/28 06:40:15;;;;;;;;;;;;;;;-144.99;100.00;52521.47;5122227;27;19979;-68
2023/10/28 06:42:42;;;;;;;;;;;;;;;-144.99;100.00;52523.50;5125270;27;20377;-68
2023/10/28 06:45:10;;;;;;;;;;;;;;;-144.99;100.00;52527.59;5121940;27;19931;-69
2023/10/28 06:47:38;;;;;;;;;;;;;;;-144.99;100.00;52537.78;5125568;27;20014;-67
2023/10/28 06:50:06;;;;;;;;;;;;;;;-144.99;100.00;52570.38;5128346;27;20046;-67
2023/10/28 06:52:32;;;;;;;;;;;;;;;-144.99;100.00;52574.47;5122249;27;19932;-68
2023/10/28 06:55:00;;;;;;;;;;;;;;;-144.99;100.00;52529.63;5127199;27;19959;-69
2023/10/28 06:57:28;;;;;;;;;;;;;;;-144.99;100.00;52558.16;5123613;27;19966;-70
2023/10/28 06:59:54;;;;;;;;;;;;;;;-144.99;100.00;52529.63;5126798;27;19980;-71
2023/10/28 07:02:21;;;;;;;;;;;;;;;-144.99;100.00;52509.25;5126173;27;19935;-70
2023/10/28 07:04:50;;;;;;;;;;;;;;;-144.99;100.00;52558.16;5126330;27;20087;-64
2023/10/28 07:07:16;;;;;;;;;;;;;;;-144.99;100.00;52541.84;5119986;27;19932;-71
2023/10/28 07:09:43;;;;;;;;;;;;;;;-144.99;100.00;52537.78;5124029;27;20050;-70
2023/10/28 07:12:10;;;;;;;;;;;;;;;-144.99;100.00;52525.56;5132391;22;20164;-69
2023/10/28 07:14:37;;;;;;;;;;;;;;;-144.99;100.00;52562.25;5108145;28;19928;-69
2023/10/28 07:17:03;;;;;;;;;;;;;;;-144.99;100.00;52554.09;5100107;28;19935;-70
2023/10/28 07:19:30;;;;;;;;;;;;;;;-144.99;100.00;52547.97;5107681;27;19928;-68
2023/10/28 07:21:58;;;;;;;;;;;;;;;-144.99;100.00;52533.69;5097383;28;20167;-71
2023/10/28 07:24:25;;;;;;;;;;;;;;;-144.99;100.00;52558.16;5090256;28;19972;-70
2023/10/28 07:26:52;;;;;;;;;;;;;;;-144.99;100.00;52517.41;5096888;28;20398;-69
2023/10/28 07:29:18;;;;;;;;;;;;;;;-144.99;100.00;52539.81;5095977;28;20027;-72
2023/10/28 07:31:45;;;;;;;;;;;;;;;-144.99;100.00;52543.91;5097443;28;19931;-70
2023/10/28 07:34:11;;;;;;;;;;;;;;;-144.99;100.00;52562.25;5102307;28;19931;-70
2023/10/28 07:36:38;;;;;;;;;;;;;;;-144.99;100.00;52556.13;5101306;28;19932;-70
2023/10/28 07:39:06;;;;;;;;;;;;;;;-144.99;100.00;52562.25;5092423;28;19987;-70
2023/10/28 07:41:32;;;;;;;;;;;;;;;-144.99;100.00;52574.47;5094417;28;19975;-70
2023/10/28 07:43:59;;;;;;;;;;;;;;;-144.99;100.00;52547.97;5090060;28;20176;-70
2023/10/28 07:46:25;;;;;;;;;;;;;;;-144.99;100.00;52529.63;5101375;28;19970;-70
2023/10/28 07:48:53;;;;;;;;;;;;;;;-144.99;100.00;52570.38;5090678;28;19977;-70
2023/10/28 07:51:20;;;;;;;;;;;;;;;-144.99;100.00;52545.94;5103634;28;19928;-70
2023/10/28 07:53:49;;;;;;;;;;;;;;;-144.99;100.00;52529.63;5111452;28;19968;-71
2023/10/28 07:56:16;;;;;;;;;;;;;;;-144.99;100.00;52560.19;5095702;28;19985;-69
2023/10/28 07:58:43;;;;;;;;;;;;;;;-144.99;100.00;52611.16;5104781;28;20019;-71
2023/10/28 08:01:14;;;;;;;;;;;;;;;-144.99;100.00;52513.31;5109933;28;20103;-69
2023/10/28 08:03:43;;;;;;;;;;;;;;;-144.99;100.00;52570.38;5095435;28;19951;-72
2023/10/28 08:06:10;;;;;;;;;;;;;;;-144.99;100.00;52533.69;5102192;28;20397;-69
2023/10/28 08:08:37;;;;;;;;;;;;;;;-144.99;100.00;52545.94;5118187;28;19927;-69
2023/10/28 08:11:04;;;;;;;;;;;;;;;-144.99;100.00;52543.91;5089077;28;19997;-69
2023/10/28 08:13:32;;;;;;;;;;;;;;;-144.99;100.00;52541.84;5095581;28;19928;-70
2023/10/28 08:15:58;;;;;;;;;;;;;;;-144.99;100.00;52554.09;5109438;28;20579;-70
2023/10/28 08:18:25;;;;;;;;;;;;;;;-144.99;100.00;52521.47;5105273;28;20008;-72
2023/10/28 08:20:51;;;;;;;;;;;;;;;-144.99;100.00;52529.63;5095909;28;19925;-74
2023/10/28 08:23:18;;;;;;;;;;;;;;;-144.99;100.00;52533.69;5105693;28;19932;-75
2023/10/28 08:25:46;;;;;;;;;;;;;;;-144.99;100.00;52539.81;5099681;28;19934;-75
2023/10/28 08:28:13;;;;;;;;;;;;;;;-144.99;100.00;52558.16;5113153;28;19932;-75
2023/10/28 08:30:41;;;;;;;;;;;;;;;-144.99;100.00;52509.25;5110081;28;20062;-74
2023/10/28 08:33:08;;;;;;;;;;;;;;;-144.99;100.00;52550.00;5098685;28;20038;-74
2023/10/28 08:35:36;;;;;;;;;;;;;;;-144.99;100.00;52539.81;5111035;28;19924;-70
2023/10/28 08:38:05;;;;;;;;;;;;;;;-144.99;100.00;52529.63;5109987;28;19962;-70
2023/10/28 08:40:31;;;;;;;;;;;;;;;-144.99;100.00;52521.47;5099147;28;20015;-70
2023/10/28 08:42:58;;;;;;;;;;;;;;;-144.99;100.00;52562.25;5098554;28;19927;-70
2023/10/28 08:45:26;;;;;;;;;;;;;;;-144.99;100.00;52521.47;5093526;28;20308;-70
2023/10/28 08:47:54;;;;;;;;;;;;;;;-144.99;100.00;52562.25;5102810;28;20011;-70
2023/10/28 08:50:23;;;;;;;;;;;;;;;-144.99;100.00;52568.34;5094449;28;19994;-70
2023/10/28 08:52:51;;;;;;;;;;;;;;;-144.99;100.00;52529.63;5097303;28;19967;-69
2023/10/28 08:55:20;;;;;;;;;;;;;;;-144.99;100.00;52554.09;5101185;28;20294;-69
2023/10/28 08:57:46;;;;;;;;;;;;;;;-144.99;100.00;52545.94;5107307;27;19928;-71
2023/10/28 09:00:15;;;;;;;;;;;;;;;-144.99;100.00;52539.81;5102715;28;19939;-69
2023/10/28 09:02:45;;;;;;;;;;;;;;;-144.99;100.00;52564.28;5096347;28;19930;-70
2023/10/28 09:05:13;;;;;;;;;;;;;;;-144.99;100.00;52523.50;5101050;28;20007;-70
2023/10/28 09:07:40;;;;;;;;;;;;;;;-144.99;100.00;52564.28;5106846;28;19928;-70
2023/10/28 09:10:07;;;;;;;;;;;;;;;-144.99;100.00;52513.31;5101630;28;19924;-70
2023/10/28 09:12:34;;;;;;;;;;;;;;;-144.99;100.00;52525.56;5100983;28;19981;-70
2023/10/28 09:15:00;;;;;;;;;;;;;;;-144.99;100.00;52541.84;5106728;28;20347;-70
2023/10/28 09:17:27;;;;;;;;;;;;;;;-144.99;100.00;52492.94;5107666;27;20086;-70
2023/10/28 09:19:53;;;;;;;;;;;;;;;-144.99;100.00;52539.81;5108274;27;19959;-70
2023/10/28 09:22:21;;;;;;;;;;;;;;;-144.99;100.00;52517.41;5099515;28;20013;-70
2023/10/28 09:24:48;;;;;;;;;;;;;;;-144.99;100.00;52545.94;5103158;28;19927;-70
2023/10/28 09:27:15;;;;;;;;;;;;;;;-144.99;100.00;52478.66;5104796;28;20014;-70
2023/10/28 09:29:42;;;;;;;;;;;;;;;-144.99;100.00;52558.16;5107216;28;19973;-70
2023/10/28 09:32:09;;;;;;;;;;;;;;;-144.99;100.00;52558.16;5102891;28;20009;-70
2023/10/28 09:34:35;;;;;;;;;;;;;;;-144.99;100.00;52513.31;5098259;28;19973;-70
2023/10/28 09:37:02;;;;;;;;;;;;;;;-144.99;100.00;52505.16;5096297;28;20368;-70
2023/10/28 09:39:32;;;;;;;;;;;;;;;-144.99;100.00;52533.69;5101734;28;19975;-70
2023/10/28 09:42:00;;;;;;;;;;;;;;;-144.99;100.00;52560.19;5099392;28;19924;-70
2023/10/28 09:44:27;;;;;;;;;;;;;;;-144.99;100.00;52550.00;5095176;28;19959;-70
2023/10/28 09:46:57;;;;;;;;;;;;;;;-144.99;100.00;52509.25;5102299;28;19923;-70
2023/10/28 09:49:26;;;;;;;;;;;;;;;-144.99;100.00;52525.56;5096672;28;19936;-71
2023/10/28 09:51:53;;;;;;;;;;;;;;;-144.99;100.00;52539.81;5104454;28;19928;-71
2023/10/28 09:54:24;;;;;;;;;;;;;;;-144.99;100.00;52541.84;5096537;27;19984;-61
2023/10/28 09:56:53;;;;;;;;;;;;;;;-144.99;100.00;52505.16;5100776;28;19928;-72
2023/10/28 09:59:22;;;;;;;;;;;;;;;-144.99;100.00;52517.41;5099027;28;20483;-72
2023/10/28 10:01:55;;;;;;;;;;;;;;;-144.99;100.00;52541.84;5096788;28;19928;-72
2023/10/28 10:04:27;;;;;;;;;;;;;;;-144.99;100.00;52505.16;5105263;28;19939;-71
2023/10/28 10:06:53;;;;;;;;;;;;;;;-144.99;100.00;52541.84;5108270;28;20022;-71
2023/10/28 10:09:19;;;;;;;;;;;;;;;-144.99;100.00;52545.94;5099405;27;19934;-71
2023/10/28 10:11:46;;;;;;;;;;;;;;;-144.99;100.00;52497.00;5099492;28;20346;-71
2023/10/28 10:14:14;;;;;;;;;;;;;;;-144.99;100.00;52503.13;5102567;28;20442;-71
2023/10/28 10:16:46;;;;;;;;;;;;;;;-144.99;100.00;52513.31;5112770;27;19985;-70
2023/10/28 10:19:16;;;;;;;;;;;;;;;-144.99;100.00;52543.91;5109566;27;19931;-71
2023/10/28 10:21:48;;;;;;;;;;;;;;;-144.99;100.00;52533.69;5101986;28;20425;-71
2023/10/28 10:24:17;;;;;;;;;;;;;;;-144.99;100.00;52545.94;5098564;28;20390;-71
2023/10/28 10:26:53;;;;;;;;;;;;;;;-144.99;100.00;52497.00;5108164;28;19997;-73
2023/10/28 10:29:21;;;;;;;;;;;;;;;-144.99;100.00;52547.97;5103892;28;20096;-70
2023/10/28 10:31:57;;;;;;;;;;;;;;;-144.99;100.00;52562.25;4724116;28;10000784;-70
2023/10/28 10:34:34;;;;;;;;;;;;;;;-144.99;100.00;52505.16;5093954;28;20415;-73
2023/10/28 10:37:01;;;;;;;;;;;;;;;-144.99;100.00;52550.00;5101510;28;19931;-71
2023/10/28 10:39:27;;;;;;;;;;;;;;;-144.99;100.00;52554.09;5095332;28;19931;-71
2023/10/28 10:41:54;;;;;;;;;;;;;;;-144.99;100.00;52525.56;5100610;27;19928;-72
2023/10/28 10:44:23;;;;;;;;;;;;;;;-144.99;100.00;52529.63;5096787;28;20027;-72
2023/10/28 10:46:50;;;;;;;;;;;;;;;-144.99;100.00;52529.63;5095779;28;19935;-72
2023/10/28 10:49:16;;;;;;;;;;;;;;;-144.99;100.00;52562.25;5094029;28;20000;-70
2023/10/28 10:51:43;;;;;;;;;;;;;;;-144.99;100.00;52554.09;5099258;28;19928;-69
2023/10/28 10:54:10;;;;;;;;;;;;;;;-144.99;100.00;52527.59;5089488;28;20027;-72
2023/10/28 10:56:36;;;;;;;;;;;;;;;-144.99;100.00;52541.84;5090401;28;20378;-72
2023/10/28 10:59:03;;;;;;;;;;;;;;;-144.99;100.00;52543.91;5097073;28;20295;-70
2023/10/28 11:01:31;;;;;;;;;;;;;;;-144.99;100.00;52529.63;5100423;28;20039;-71
2023/10/28 11:03:58;;;;;;;;;;;;;;;-144.99;100.00;52531.66;5094226;28;19958;-71
2023/10/28 11:06:25;;;;;;;;;;;;;;;-144.99;100.00;52513.31;5096998;28;19938;-70
2023/10/28 11:08:51;;;;;;;;;;;;;;;-144.99;100.00;52537.78;5094202;28;19963;-61
2023/10/28 11:11:18;;;;;;;;;;;;;;;-144.99;100.00;52503.13;5094221;28;19950;-70
2023/10/28 11:13:44;;;;;;;;;;;;;;;-144.99;100.00;52537.78;5094199;28;20006;-70
2023/10/28 11:16:19;;;;;;;;;;;;;;;-144.99;100.00;52533.69;5095092;28;20548;-70
2023/10/28 11:18:47;;;;;;;;;;;;;;;-144.99;100.00;52515.34;5101278;28;19932;-71
2023/10/28 11:21:13;;;;;;;;;;;;;;;-144.99;100.00;52566.31;5093186;28;20038;-71
2023/10/28 11:23:40;;;;;;;;;;;;;;;-144.99;100.00;52525.56;5093681;28;20338;-72
2023/10/28 11:26:07;;;;;;;;;;;;;;;-144.99;100.00;52545.94;5093433;28;19973;-71
2023/10/28 11:28:34;;;;;;;;;;;;;;;-144.99;100.00;52554.09;5094683;28;20019;-71
2023/10/28 11:31:01;;;;;;;;;;;;;;;-144.99;100.00;52566.31;5093004;28;20342;-71
2023/10/28 11:33:27;;;;;;;;;;;;;;;-144.99;100.00;52521.47;5094692;28;20457;-71
2023/10/28 11:35:55;;;;;;;;;;;;;;;-144.99;100.00;52513.31;5097165;28;20323;-71
2023/10/28 11:38:22;;;;;;;;;;;;;;;-144.99;100.00;52501.09;5101051;28;20387;-71
2023/10/28 11:41:01;;;;;;;;;;;;;;;-144.99;100.00;52521.47;5097232;28;19928;-71
2023/10/28 11:43:29;;;;;;;;;;;;;;;-144.99;100.00;52562.25;5094781;28;19935;-71
2023/10/28 11:45:55;;;;;;;;;;;;;;;-144.99;100.00;52550.00;5093986;28;19969;-71
2023/10/28 11:48:22;;;;;;;;;;;;;;;-144.99;100.00;52521.47;5094957;28;20098;-71
2023/10/28 11:50:49;;;;;;;;;;;;;;;-144.99;100.00;52515.34;5096315;28;20408;-71
2023/10/28 11:53:16;;;;;;;;;;;;;;;-144.99;100.00;52529.63;5094949;28;19935;-71
2023/10/28 11:55:45;;;;;;;;;;;;;;;-144.99;100.00;52533.69;5095300;28;20030;-72
2023/10/28 11:58:11;;;;;;;;;;;;;;;-144.99;100.00;52519.44;5095485;28;19928;-71
2023/10/28 12:00:38;;;;;;;;;;;;;;;-144.99;100.00;52533.69;5093346;28;19924;-71
2023/10/28 12:03:04;;;;;;;;;;;;;;;-144.99;100.00;52545.94;5094246;28;19927;-71
2023/10/28 12:05:33;;;;;;;;;;;;;;;-144.99;100.00;52541.84;5097274;28;19993;-71
2023/10/28 12:07:59;;;;;;;;;;;;;;;-144.99;100.00;52541.84;5099721;28;19924;-71
2023/10/28 12:10:27;;;;;;;;;;;;;;;-144.99;100.00;52554.09;5096140;28;19977;-71
2023/10/28 12:12:54;;;;;;;;;;;;;;;-144.99;100.00;52517.41;5100290;28;19975;-73
2023/10/28 12:15:20;;;;;;;;;;;;;;;-144.99;100.00;52488.84;5106469;28;19987;-70
2023/10/28 12:17:47;;;;;;;;;;;;;;;-144.99;100.00;52513.31;5112901;28;21569;-72